createdAt,value
2023-03-08T00:04:35.340Z,11.10
2023-03-08T00:09:39.828Z,12.38
2023-03-08T00:14:41.351Z,11.00
2023-03-08T00:19:43.110Z,14.13
2023-03-08T00:24:44.710Z,12.55
2023-03-08T00:29:46.212Z,11.63
2023-03-08T00:34:47.662Z,10.00
2023-03-08T00:39:54.588Z,8.60
2023-03-08T00:44:56.048Z,9.35
2023-03-08T00:49:57.471Z,6.50
2023-03-08T00:54:58.907Z,6.93
2023-03-08T01:00:00.470Z,6.38
2023-03-08T01:05:01.926Z,6.90
2023-03-08T01:10:05.376Z,7.68
2023-03-08T01:15:07.586Z,7.95
2023-03-08T01:20:09.636Z,8.45
2023-03-08T01:25:11.135Z,10.18
2023-03-08T01:30:12.853Z,6.20
2023-03-08T01:35:14.574Z,5.97
2023-03-08T01:40:16.517Z,4.82
2023-03-08T01:45:55.237Z,5.38
2023-03-08T01:50:56.892Z,6.63
2023-03-08T01:55:58.514Z,5.95
2023-03-08T02:00:59.944Z,5.05
2023-03-08T02:06:03.112Z,4.28
2023-03-08T02:11:04.721Z,6.28
2023-03-08T02:16:10.177Z,7.82
2023-03-08T02:21:11.620Z,5.18
2023-03-08T02:26:13.196Z,4.50
2023-03-08T02:31:15.932Z,5.05
2023-03-08T02:36:17.472Z,6.65
2023-03-08T02:41:20.212Z,4.05
2023-03-08T02:46:21.740Z,3.63
2023-03-08T02:51:23.158Z,2.42
2023-03-08T02:56:24.817Z,6.05
2023-03-08T03:01:26.282Z,2.97
2023-03-08T03:06:27.833Z,3.03
2023-03-08T03:11:29.370Z,3.58
2023-03-08T03:16:30.851Z,3.40
2023-03-08T03:21:32.627Z,4.18
2023-03-08T03:26:35.096Z,4.68
2023-03-08T03:31:36.724Z,3.42
2023-03-08T03:36:38.151Z,3.58
2023-03-08T03:41:39.603Z,5.57
2023-03-08T03:46:41.068Z,5.57
2023-03-08T03:51:42.543Z,4.22
2023-03-08T03:56:43.997Z,3.83
2023-03-08T04:01:45.415Z,3.33
2023-03-08T04:06:46.864Z,4.32
2023-03-08T04:11:48.275Z,4.07
2023-03-08T04:16:49.718Z,4.68
2023-03-08T04:21:51.304Z,2.85
2023-03-08T04:26:52.753Z,3.45
2023-03-08T04:31:58.208Z,4.55
2023-03-08T04:36:59.652Z,4.38
2023-03-08T04:42:01.088Z,4.30
2023-03-08T04:47:02.592Z,3.35
2023-03-08T04:52:04.373Z,4.07
2023-03-08T04:57:05.914Z,4.38
2023-03-08T05:02:07.384Z,3.75
2023-03-08T05:07:08.947Z,5.53
2023-03-08T05:12:10.446Z,6.13
2023-03-08T05:17:11.995Z,4.05
2023-03-08T05:22:13.571Z,6.80
2023-03-08T05:27:15.026Z,10.00
2023-03-08T05:32:16.525Z,10.25
2023-03-08T05:37:18.015Z,9.15
2023-03-08T05:42:19.824Z,6.32
2023-03-08T05:47:21.295Z,6.82
2023-03-08T05:52:22.742Z,6.45
2023-03-08T05:57:24.244Z,7.78
2023-03-08T06:02:25.838Z,8.02
2023-03-08T06:07:27.376Z,6.20
2023-03-08T06:12:28.807Z,8.98
2023-03-08T06:17:30.240Z,11.38
2023-03-08T06:22:31.661Z,33.90
2023-03-08T06:27:33.101Z,45.28
2023-03-08T06:32:35.997Z,60.67
2023-03-08T06:37:37.508Z,35.35
2023-03-08T06:42:41.755Z,11.35
2023-03-08T06:47:43.482Z,13.07
2023-03-08T06:52:45.032Z,20.77
2023-03-08T06:57:47.116Z,8.07
2023-03-08T07:02:49.745Z,11.32
2023-03-08T07:07:51.262Z,11.98
2023-03-08T07:12:52.844Z,8.70
2023-03-08T07:17:56.414Z,15.63
2023-03-08T07:23:01.627Z,8.13
2023-03-08T07:28:03.057Z,10.15
2023-03-08T07:33:04.582Z,10.63
2023-03-08T07:38:06.140Z,9.27
2023-03-08T07:43:07.600Z,6.93
2023-03-08T07:48:09.066Z,12.07
2023-03-08T07:53:10.592Z,11.45
2023-03-08T07:58:12.015Z,14.68
2023-03-08T08:03:13.519Z,8.15
2023-03-08T08:08:15.046Z,11.02
2023-03-08T08:13:16.510Z,8.02
2023-03-08T08:18:17.920Z,8.48
2023-03-08T08:23:19.334Z,8.13
2023-03-08T08:28:20.774Z,13.02
2023-03-08T08:33:22.320Z,10.65
2023-03-08T08:38:24.630Z,12.43
2023-03-08T08:43:26.217Z,8.25
2023-03-08T08:48:28.381Z,9.57
2023-03-08T08:53:29.859Z,10.32
2023-03-08T08:58:31.308Z,10.55
2023-03-08T09:03:32.775Z,10.45
2023-03-08T09:08:34.217Z,8.52
2023-03-08T09:13:38.237Z,7.80
2023-03-08T09:18:39.699Z,8.32
2023-03-08T09:23:41.762Z,7.80
2023-03-08T09:28:43.282Z,8.35
2023-03-08T09:33:51.895Z,8.30
2023-03-08T09:38:54.080Z,7.97
2023-03-08T09:44:14.092Z,16.20
2023-03-08T09:49:22.210Z,8.52
2023-03-08T09:54:25.514Z,7.47
2023-03-08T09:59:35.649Z,7.43
2023-03-08T10:05:12.381Z,5.78
2023-03-08T10:10:33.102Z,7.10
2023-03-08T10:15:43.427Z,7.70
2023-03-08T10:20:45.733Z,9.32
2023-03-08T10:25:49.037Z,16.63
2023-03-08T10:30:51.864Z,14.35
2023-03-08T10:35:58.737Z,10.45
2023-03-08T10:41:10.504Z,10.95
2023-03-08T10:46:14.750Z,9.32
2023-03-08T10:51:29.173Z,10.00
2023-03-08T10:56:44.619Z,12.00
2023-03-08T11:01:52.316Z,9.30
2023-03-08T11:06:54.021Z,12.40
2023-03-08T11:11:57.348Z,9.60
2023-03-08T11:17:07.631Z,9.95
2023-03-08T11:22:46.599Z,11.90
2023-03-08T11:28:02.039Z,12.02
2023-03-08T11:33:48.867Z,10.73
2023-03-08T11:38:59.453Z,9.55
2023-03-08T11:44:09.322Z,11.02
2023-03-08T11:49:43.118Z,12.48
2023-03-08T11:55:11.942Z,9.75
2023-03-08T12:00:23.705Z,8.40
2023-03-08T12:05:36.884Z,7.85
2023-03-08T12:10:46.066Z,8.60
2023-03-08T12:15:54.478Z,7.47
2023-03-08T12:21:08.103Z,11.00
2023-03-08T12:26:24.077Z,10.45
2023-03-08T12:31:30.063Z,10.15
2023-03-08T12:36:40.892Z,8.93
2023-03-08T12:41:42.454Z,10.48
2023-03-08T12:47:00.232Z,10.10
2023-03-08T12:52:25.468Z,9.73
2023-03-08T12:57:34.085Z,10.45
2023-03-08T13:02:35.737Z,12.27
2023-03-08T13:07:50.355Z,12.90
2023-03-08T13:13:18.478Z,11.57
2023-03-08T13:18:28.378Z,13.15
2023-03-08T13:23:38.784Z,14.13
2023-03-08T13:28:47.798Z,13.23
2023-03-08T13:39:17.767Z,13.18
2023-03-08T13:44:24.591Z,13.82
2023-03-08T13:49:36.401Z,15.35
2023-03-08T13:54:45.186Z,13.07
2023-03-08T13:59:52.905Z,14.32
2023-03-08T14:04:55.199Z,12.82
2023-03-08T14:09:57.371Z,15.52
2023-03-08T14:15:02.509Z,18.58
2023-03-08T14:20:16.977Z,17.95
2023-03-08T14:25:36.663Z,18.15
2023-03-08T14:30:47.185Z,20.30
2023-03-08T14:35:55.729Z,18.35
2023-03-08T14:41:00.322Z,15.83
2023-03-08T14:46:07.254Z,16.75
2023-03-08T14:51:17.690Z,18.77
2023-03-08T14:56:19.095Z,18.90
2023-03-08T15:01:32.631Z,19.98
2023-03-08T15:06:36.713Z,20.95
2023-03-08T15:11:38.251Z,22.73
2023-03-08T15:16:39.938Z,20.80
2023-03-08T15:21:42.237Z,23.40
2023-03-08T15:26:44.823Z,18.20
2023-03-08T15:31:46.240Z,24.50
2023-03-08T15:36:48.902Z,25.90
2023-03-08T15:41:50.550Z,27.23
2023-03-08T15:46:52.945Z,22.20
2023-03-08T15:51:54.826Z,22.77
2023-03-08T15:56:56.272Z,25.98
2023-03-08T16:01:57.710Z,24.63
2023-03-08T16:06:59.124Z,21.30
2023-03-08T16:12:00.560Z,22.20
2023-03-08T16:17:03.781Z,23.05
2023-03-08T16:22:05.491Z,21.52
2023-03-08T16:27:06.970Z,25.70
2023-03-08T16:32:10.031Z,23.75
2023-03-08T16:37:11.549Z,24.25
2023-03-08T16:42:13.761Z,22.77
2023-03-08T16:47:15.235Z,22.15
2023-03-08T16:52:18.687Z,22.38
2023-03-08T16:57:21.629Z,21.90
2023-03-08T17:02:23.180Z,21.08
2023-03-08T17:07:24.681Z,27.73
2023-03-08T17:12:26.142Z,24.90
2023-03-08T17:17:27.612Z,26.83
2023-03-08T17:22:29.256Z,27.92
2023-03-08T17:27:30.952Z,27.58
2023-03-08T17:32:32.390Z,34.50
2023-03-08T17:37:41.666Z,35.75
2023-03-08T17:47:45.071Z,30.98
2023-03-08T17:52:46.625Z,35.10
2023-03-08T17:57:48.061Z,32.45
2023-03-08T18:02:49.684Z,50.53
2023-03-08T18:07:51.159Z,47.95
2023-03-08T18:12:52.732Z,71.20
2023-03-08T18:17:54.243Z,81.85
2023-03-08T18:22:55.986Z,76.22
2023-03-08T18:27:57.418Z,69.95
2023-03-08T18:32:58.847Z,51.78
2023-03-08T18:38:00.713Z,49.15
2023-03-08T18:43:03.361Z,41.90
2023-03-08T18:48:04.788Z,42.13
2023-03-08T18:53:06.268Z,35.78
2023-03-08T18:58:08.156Z,32.15
2023-03-08T19:03:09.587Z,31.70
2023-03-08T19:08:11.008Z,29.80
2023-03-08T19:13:12.445Z,29.88
2023-03-08T19:18:13.934Z,34.10
2023-03-08T19:23:15.361Z,30.17
2023-03-08T19:28:16.809Z,28.65
2023-03-08T19:33:30.495Z,30.40
2023-03-08T19:38:33.000Z,34.05
2023-03-08T19:43:34.475Z,31.42
2023-03-08T19:48:36.654Z,34.42
2023-03-08T19:53:38.102Z,32.47
2023-03-08T19:58:39.554Z,33.65
2023-03-08T20:03:41.501Z,32.20
2023-03-08T20:08:44.375Z,32.33
2023-03-08T20:13:45.833Z,32.95
2023-03-08T20:18:51.579Z,30.25
2023-03-08T20:23:57.493Z,31.92
2023-03-08T20:28:59.610Z,34.03
2023-03-08T20:34:01.245Z,38.85
2023-03-08T20:39:03.836Z,47.47
2023-03-08T20:44:05.312Z,51.38
2023-03-08T20:49:06.902Z,50.90
2023-03-08T20:54:08.826Z,43.80
2023-03-08T20:59:10.927Z,42.75
2023-03-08T21:04:12.740Z,36.08
2023-03-08T21:09:14.355Z,33.05
2023-03-08T21:14:15.809Z,36.22
2023-03-08T21:19:17.412Z,37.58
2023-03-08T21:24:21.231Z,35.28
2023-03-08T21:29:22.756Z,39.13
2023-03-08T21:34:24.315Z,35.05
2023-03-08T21:39:26.850Z,32.20
2023-03-08T21:44:30.289Z,31.67
2023-03-08T21:49:35.157Z,33.22
2023-03-08T21:54:36.580Z,38.42
2023-03-08T21:59:38.099Z,34.95
2023-03-08T22:04:39.578Z,30.65
2023-03-08T22:09:41.034Z,32.60
2023-03-08T22:14:42.437Z,29.05
2023-03-08T22:19:44.416Z,32.17
2023-03-08T22:24:46.159Z,36.38
2023-03-08T22:29:47.620Z,37.67
2023-03-08T22:34:49.286Z,36.53
2023-03-08T22:39:50.785Z,38.45
2023-03-08T22:44:52.272Z,40.67
2023-03-08T22:49:53.701Z,39.55
2023-03-08T22:54:55.214Z,39.22
2023-03-08T22:59:58.038Z,39.28
2023-03-08T23:04:59.456Z,34.90
2023-03-08T23:10:00.875Z,40.28
2023-03-08T23:16:13.645Z,44.47
2023-03-08T23:21:17.719Z,41.55
2023-03-08T23:26:21.444Z,41.17
2023-03-08T23:31:26.432Z,36.80
2023-03-08T23:36:30.362Z,39.33
2023-03-08T23:41:32.621Z,42.15
2023-03-08T23:46:34.136Z,38.97
2023-03-08T23:51:35.900Z,44.28
2023-03-08T23:56:39.182Z,45.65
